Time;durP1;ratioP1;P1;durP2;ratioP2;P2;SDS_P1;SDS_P2;PMS_P1;PMS_P2;Temp;Humidity;BMP_temperature;BMP_pressure;BME280_temperature;BME280_humidity;BME280_pressure;Samples;Min_cycle;Max_cycle;Signal;HPM_P1;HPM_P2
2022/07/04 00:00:01;;;;;;;3.97;2.42;;;;;;;17.82;100.00;96062.59;1022029;28;20034;-71
2022/07/04 00:00:32;;;;;;;2.45;2.20;;;;;;;17.86;100.00;96069.66;1023546;28;20026;-72
2022/07/04 00:01:02;;;;;;;3.55;2.40;;;;;;;17.87;100.00;96065.13;1024536;28;20033;-71
2022/07/04 00:01:33;;;;;;;3.97;2.80;;;;;;;17.92;100.00;96074.84;1025770;28;20042;-71
2022/07/04 00:02:03;;;;;;;3.80;2.30;;;;;;;17.96;100.00;96084.56;1025444;28;20426;-71
2022/07/04 00:02:34;;;;;;;3.65;2.03;;;;;;;17.99;100.00;96073.34;1026071;28;20030;-70
2022/07/04 00:03:05;;;;;;;3.58;2.42;;;;;;;18.05;100.00;96077.47;1022051;28;20028;-72
2022/07/04 00:03:35;;;;;;;4.60;2.30;;;;;;;18.11;100.00;96075.47;1022453;28;20414;-72
2022/07/04 00:04:06;;;;;;;5.75;2.08;;;;;;;18.12;100.00;96077.81;1025234;28;20062;-72
2022/07/04 00:04:36;;;;;;;8.23;2.33;;;;;;;18.09;100.00;96073.09;1025595;28;20054;-73
2022/07/04 00:05:10;;;;;;;2.85;2.00;;;;;;;18.11;100.00;96068.28;1029844;28;20027;-72
2022/07/04 00:05:41;;;;;;;4.93;2.08;;;;;;;18.13;100.00;96068.75;1025655;28;20182;-71
2022/07/04 00:06:11;;;;;;;4.05;2.13;;;;;;;18.19;100.00;96068.63;1026130;28;20609;-72
2022/07/04 00:06:42;;;;;;;3.17;2.47;;;;;;;18.12;100.00;96056.56;1025135;28;20498;-71
2022/07/04 00:07:12;;;;;;;5.78;1.98;;;;;;;18.16;100.00;96059.41;1018443;28;20034;-71
2022/07/04 00:07:44;;;;;;;3.05;2.10;;;;;;;18.19;100.00;96060.66;1026085;28;20099;-71
2022/07/04 00:08:14;;;;;;;3.75;2.03;;;;;;;18.20;100.00;96059.56;1022666;28;20794;-71
2022/07/04 00:08:45;;;;;;;5.15;2.03;;;;;;;18.22;100.00;96049.44;1023987;28;20748;-72
2022/07/04 00:09:15;;;;;;;3.50;2.00;;;;;;;18.25;100.00;96054.16;1025709;28;20031;-71
2022/07/04 00:09:46;;;;;;;2.20;2.00;;;;;;;18.20;100.00;96051.59;1025653;28;20666;-71
2022/07/04 00:10:17;;;;;;;8.30;2.35;;;;;;;18.24;100.00;96052.56;1037720;28;20026;-72
2022/07/04 00:10:48;;;;;;;5.50;2.15;;;;;;;18.22;100.00;96057.41;1033809;28;20477;-71
2022/07/04 00:11:18;;;;;;;5.05;2.90;;;;;;;18.21;100.00;96048.66;1032149;28;20018;-71
2022/07/04 00:11:49;;;;;;;5.10;2.42;;;;;;;18.25;100.00;96056.81;1028344;28;20030;-71
2022/07/04 00:12:19;;;;;;;3.15;1.90;;;;;;;18.25;100.00;96052.28;1025586;28;20019;-72
2022/07/04 00:12:50;;;;;;;3.28;1.90;;;;;;;18.28;100.00;96045.59;1024711;28;20042;-72
2022/07/04 00:13:20;;;;;;;2.28;1.83;;;;;;;18.31;100.00;96042.31;1034040;28;20033;-72
2022/07/04 00:13:51;;;;;;;3.10;1.95;;;;;;;18.33;100.00;96038.25;1033889;28;20029;-72
2022/07/04 00:14:21;;;;;;;4.43;2.08;;;;;;;18.36;100.00;96032.31;1029697;28;20738;-72
2022/07/04 00:14:52;;;;;;;6.30;2.08;;;;;;;18.40;100.00;96034.38;1023492;28;20015;-72
2022/07/04 00:15:22;;;;;;;3.50;2.03;;;;;;;18.31;100.00;96031.69;1021922;28;20576;-71
2022/07/04 00:15:53;;;;;;;6.25;1.92;;;;;;;18.30;100.00;96036.19;1027509;28;20015;-71
2022/07/04 00:16:23;;;;;;;2.85;1.85;;;;;;;18.29;100.00;96029.31;1025514;28;20026;-72
2022/07/04 00:16:54;;;;;;;5.70;2.05;;;;;;;18.25;100.00;96039.00;1029675;28;20034;-71
2022/07/04 00:17:24;;;;;;;4.85;2.17;;;;;;;18.21;100.00;96042.53;1025545;28;20023;-71
2022/07/04 00:17:54;;;;;;;2.85;2.08;;;;;;;18.19;100.00;96044.72;1030427;28;20486;-72
2022/07/04 00:18:25;;;;;;;3.42;2.20;;;;;;;18.18;100.00;96043.19;1033780;28;20029;-71
2022/07/04 00:18:55;;;;;;;3.10;2.22;;;;;;;18.14;100.00;96049.09;1026239;28;20027;-72
2022/07/04 00:19:26;;;;;;;2.63;2.20;;;;;;;18.11;100.00;96049.69;1029829;28;20109;-71
2022/07/04 00:19:56;;;;;;;3.75;2.00;;;;;;;18.10;100.00;96058.72;1025973;28;20025;-72
2022/07/04 00:20:27;;;;;;;2.80;2.28;;;;;;;18.04;100.00;96048.53;1021454;29;20027;-71
2022/07/04 00:20:57;;;;;;;4.38;1.90;;;;;;;18.04;100.00;96052.00;1021918;29;20031;-71
2022/07/04 00:21:28;;;;;;;3.45;1.80;;;;;;;18.05;100.00;96037.63;1019799;28;20592;-72
2022/07/04 00:21:58;;;;;;;5.50;2.00;;;;;;;18.07;100.00;96047.94;1024995;28;20023;-71
2022/07/04 00:22:29;;;;;;;2.13;1.85;;;;;;;18.08;100.00;96050.28;1025669;28;20050;-71
2022/07/04 00:22:59;;;;;;;2.90;1.90;;;;;;;18.10;100.00;96047.31;1021638;29;20543;-72
2022/07/04 00:23:30;;;;;;;2.85;2.10;;;;;;;18.13;100.00;96044.84;1017189;29;20023;-72
2022/07/04 00:24:00;;;;;;;5.68;2.08;;;;;;;18.11;100.00;96044.38;1014535;29;20035;-71
2022/07/04 00:24:31;;;;;;;6.55;2.33;;;;;;;18.14;100.00;96042.97;1022076;28;20028;-72
2022/07/04 00:25:02;;;;;;;3.85;1.70;;;;;;;18.12;100.00;96045.16;1018052;29;20449;-71
2022/07/04 00:25:32;;;;;;;3.38;1.70;;;;;;;18.13;100.00;96038.75;1018023;28;20020;-71
2022/07/04 00:26:03;;;;;;;6.05;1.80;;;;;;;18.17;100.00;96041.59;1017956;29;20019;-72
2022/07/04 00:26:33;;;;;;;3.83;1.80;;;;;;;18.16;100.00;96045.34;1018293;29;20024;-71
2022/07/04 00:27:04;;;;;;;3.88;1.58;;;;;;;18.16;100.00;96040.03;1019790;28;20039;-71
2022/07/04 00:27:34;;;;;;;4.63;1.60;;;;;;;18.17;100.00;96037.06;1029747;28;20521;-72
2022/07/04 00:28:05;;;;;;;3.42;2.03;;;;;;;18.24;100.00;96039.28;1021952;29;20479;-70
2022/07/04 00:28:35;;;;;;;3.97;1.65;;;;;;;18.29;100.00;96036.50;1018219;29;20059;-71
2022/07/04 00:29:06;;;;;;;6.20;1.98;;;;;;;18.28;100.00;96035.72;1018072;29;20083;-69
2022/07/04 00:29:36;;;;;;;4.72;1.67;;;;;;;18.25;100.00;96028.38;1022432;28;20859;-71
2022/07/04 00:30:07;;;;;;;3.28;1.70;;;;;;;18.27;100.00;96018.19;1026240;28;20019;-72
2022/07/04 00:30:38;;;;;;;8.95;2.38;;;;;;;18.32;100.00;96026.06;1032811;28;20109;-72
2022/07/04 00:31:08;;;;;;;3.95;1.75;;;;;;;18.33;100.00;96021.53;1038010;28;20018;-72
2022/07/04 00:31:39;;;;;;;2.58;1.80;;;;;;;18.34;100.00;96015.13;1033548;28;20029;-71
2022/07/04 00:32:09;;;;;;;3.53;2.03;;;;;;;18.32;100.00;96017.31;1021613;29;20019;-72
2022/07/04 00:32:40;;;;;;;2.40;2.20;;;;;;;18.27;100.00;96012.09;1018206;29;20080;-72
2022/07/04 00:33:12;;;;;;;3.97;2.40;;;;;;;18.27;100.00;96020.09;1017889;29;20650;-72
2022/07/04 00:33:42;;;;;;;3.10;1.77;;;;;;;18.28;100.00;96019.78;1018445;28;20020;-72
2022/07/04 00:34:13;;;;;;;2.08;1.70;;;;;;;18.26;100.00;96010.56;1021967;29;20114;-71
2022/07/04 00:34:43;;;;;;;4.30;1.80;;;;;;;18.25;100.00;96014.31;1026113;28;20558;-72
2022/07/04 00:35:14;;;;;;;4.28;1.80;;;;;;;18.25;100.00;96014.31;1022112;28;20023;-72
2022/07/04 00:35:44;;;;;;;3.17;2.08;;;;;;;18.26;100.00;96013.22;1029830;28;20030;-72
2022/07/04 00:36:15;;;;;;;4.22;1.83;;;;;;;18.25;100.00;96011.66;1033918;28;20029;-72
2022/07/04 00:36:45;;;;;;;3.20;2.20;;;;;;;18.23;100.00;96016.47;1030069;28;20092;-72
2022/07/04 00:37:16;;;;;;;5.30;1.60;;;;;;;18.20;100.00;95999.25;1033687;28;20089;-72
2022/07/04 00:37:46;;;;;;;2.95;1.90;;;;;;;18.24;100.00;96004.75;1026215;28;20142;-71
2022/07/04 00:38:16;;;;;;;3.35;1.85;;;;;;;18.24;100.00;96008.22;1029880;28;20018;-72
2022/07/04 00:38:47;;;;;;;3.28;2.97;;;;;;;18.26;100.00;96005.25;1025972;28;20073;-72
2022/07/04 00:39:17;;;;;;;2.58;1.70;;;;;;;18.30;100.00;96003.53;1029866;28;20054;-71
2022/07/04 00:39:48;;;;;;;6.07;1.95;;;;;;;18.24;100.00;96005.56;1033931;28;20432;-71
2022/07/04 00:40:19;;;;;;;5.03;2.10;;;;;;;18.24;100.00;96008.22;1034047;28;20018;-71
2022/07/04 00:40:49;;;;;;;4.45;2.28;;;;;;;18.24;100.00;96004.75;1028842;28;20101;-72
2022/07/04 00:41:20;;;;;;;4.30;2.00;;;;;;;18.23;100.00;96008.50;1025781;28;20019;-72
2022/07/04 00:41:50;;;;;;;5.53;2.03;;;;;;;18.21;100.00;96005.34;1029380;28;20022;-72
2022/07/04 00:42:21;;;;;;;5.15;1.95;;;;;;;18.18;100.00;96006.00;1025838;28;20047;-72
2022/07/04 00:42:51;;;;;;;2.53;1.92;;;;;;;18.19;100.00;96002.22;1021926;28;20019;-73
2022/07/04 00:43:26;;;;;;;4.68;2.10;;;;;;;18.15;100.00;95991.44;1025804;28;20031;-72
2022/07/04 00:44:01;;;;;;;2.60;2.10;;;;;;;18.18;100.00;96003.34;1022496;28;20026;-72
2022/07/04 00:44:35;;;;;;;3.22;2.00;;;;;;;18.12;100.00;96003.44;1024389;28;20057;-72
2022/07/04 00:45:06;;;;;;;2.45;1.92;;;;;;;18.14;100.00;96006.59;1025985;28;20046;-72
2022/07/04 00:45:36;;;;;;;2.20;2.00;;;;;;;18.12;100.00;96008.75;1026133;28;20593;-72
2022/07/04 00:46:07;;;;;;;4.20;2.38;;;;;;;18.08;100.00;96007.81;1029585;28;20030;-72
2022/07/04 00:46:37;;;;;;;4.25;2.50;;;;;;;18.04;100.00;96006.03;1030434;28;20026;-72
2022/07/04 00:47:08;;;;;;;2.63;2.00;;;;;;;17.98;100.00;96002.75;1029937;28;20027;-72
2022/07/04 00:47:38;;;;;;;1.90;1.80;;;;;;;18.03;100.00;96013.22;1021504;28;20020;-72
2022/07/04 00:48:09;;;;;;;3.20;1.90;;;;;;;18.05;100.00;96007.63;1019756;28;20450;-71
2022/07/04 00:48:39;;;;;;;2.80;1.70;;;;;;;18.06;100.00;96009.19;1022914;28;20062;-72
2022/07/04 00:49:10;;;;;;;5.72;2.17;;;;;;;18.03;100.00;96005.25;1026642;28;20109;-72
2022/07/04 00:49:41;;;;;;;3.60;2.25;;;;;;;18.03;100.00;96015.88;1030494;28;20037;-72
2022/07/04 00:50:11;;;;;;;3.88;2.10;;;;;;;18.05;100.00;96013.72;1030960;28;20014;-72
2022/07/04 00:50:43;;;;;;;4.57;1.90;;;;;;;18.04;100.00;96022.78;1034018;28;20052;-72
2022/07/04 00:51:14;;;;;;;3.42;1.70;;;;;;;18.09;100.00;96013.91;1023322;28;20656;-72
2022/07/04 00:51:44;;;;;;;1.98;1.77;;;;;;;18.08;100.00;96005.16;1026082;28;20020;-72
2022/07/04 00:52:15;;;;;;;3.60;2.15;;;;;;;18.10;100.00;96002.19;1022573;29;20019;-72
2022/07/04 00:52:45;;;;;;;4.10;2.08;;;;;;;18.11;100.00;96003.75;1026793;28;20085;-72
2022/07/04 00:53:17;;;;;;;4.43;2.00;;;;;;;18.18;100.00;96011.31;1030688;28;20746;-72
2022/07/04 00:53:47;;;;;;;2.15;1.95;;;;;;;18.14;100.00;96006.59;1030729;28;20149;-72
2022/07/04 00:54:18;;;;;;;3.70;2.10;;;;;;;18.13;100.00;96010.31;1030392;28;20486;-72
2022/07/04 00:54:49;;;;;;;5.05;1.83;;;;;;;18.12;100.00;96008.75;1018930;29;20134;-72
2022/07/04 00:55:21;;;;;;;2.45;1.58;;;;;;;18.16;100.00;96008.16;1023089;28;20019;-72
2022/07/04 00:55:51;;;;;;;2.22;1.80;;;;;;;18.15;100.00;96002.06;1022275;29;20038;-72
2022/07/04 00:56:22;;;;;;;2.72;2.15;;;;;;;18.19;100.00;96004.91;1018683;29;20146;-72
2022/07/04 00:56:53;;;;;;;3.03;1.73;;;;;;;18.14;100.00;96001.28;1014974;29;20123;-72
2022/07/04 00:57:24;;;;;;;2.90;2.10;;;;;;;18.16;100.00;96003.63;1022669;29;20066;-72
2022/07/04 00:57:54;;;;;;;3.13;1.77;;;;;;;18.18;100.00;95998.03;1026790;28;20033;-72
2022/07/04 00:58:25;;;;;;;3.05;1.85;;;;;;;18.26;100.00;95997.28;1026500;28;20026;-72
2022/07/04 00:58:55;;;;;;;4.57;2.22;;;;;;;18.21;100.00;96000.03;1022920;28;20061;-72
2022/07/04 00:59:26;;;;;;;3.00;1.90;;;;;;;18.26;100.00;96010.56;1022754;28;20143;-73
2022/07/04 00:59:57;;;;;;;2.67;1.85;;;;;;;18.23;100.00;96006.63;1022592;29;20019;-72
2022/07/04 01:00:27;;;;;;;3.08;2.33;;;;;;;18.20;100.00;96004.56;1018652;29;20039;-72
2022/07/04 01:00:57;;;;;;;4.57;2.47;;;;;;;18.19;100.00;96007.56;1019969;28;20079;-72
2022/07/04 01:01:28;;;;;;;2.15;1.75;;;;;;;18.19;100.00;96008.31;1026664;28;20023;-73
2022/07/04 01:01:58;;;;;;;2.55;2.35;;;;;;;18.22;100.00;96001.63;1029948;28;20026;-72
2022/07/04 01:02:29;;;;;;;4.95;2.13;;;;;;;18.27;100.00;96009.44;1034519;28;20018;-72
2022/07/04 01:02:59;;;;;;;4.85;1.90;;;;;;;18.34;100.00;95993.84;1034526;28;20089;-72
2022/07/04 01:03:30;;;;;;;3.85;1.92;;;;;;;18.31;100.00;96000.59;1026821;28;20581;-72
2022/07/04 01:04:04;;;;;;;2.45;1.83;;;;;;;18.30;100.00;96008.84;1022690;29;20788;-72
2022/07/04 01:04:34;;;;;;;6.05;2.25;;;;;;;18.29;100.00;96005.41;1025064;28;20133;-73
2022/07/04 01:05:06;;;;;;;2.80;1.90;;;;;;;18.32;100.00;96004.03;1022854;29;20022;-72
2022/07/04 01:05:38;;;;;;;3.33;2.00;;;;;;;18.34;100.00;95996.50;1019951;29;20027;-72
2022/07/04 01:06:08;;;;;;;7.07;2.20;;;;;;;18.38;100.00;95994.84;1016417;29;20020;-72
2022/07/04 01:06:39;;;;;;;5.25;2.00;;;;;;;18.38;100.00;95995.63;1018828;29;20103;-72
2022/07/04 01:07:10;;;;;;;4.30;2.10;;;;;;;18.41;100.00;95998.75;1018825;29;20023;-72
2022/07/04 01:07:42;;;;;;;4.35;1.95;;;;;;;18.40;100.00;95997.19;1027764;28;21700;-72
2022/07/04 01:08:12;;;;;;;3.47;2.08;;;;;;;18.43;100.00;95996.56;1022866;28;20438;-70
2022/07/04 01:08:43;;;;;;;3.08;1.88;;;;;;;18.42;100.00;96003.75;1022922;28;20030;-72
2022/07/04 01:09:13;;;;;;;2.90;1.88;;;;;;;18.43;100.00;95996.56;1030607;28;20367;-71
2022/07/04 01:09:44;;;;;;;1.90;1.70;;;;;;;18.45;100.00;96005.81;1030467;28;20090;-73
2022/07/04 01:10:15;;;;;;;2.85;1.92;;;;;;;18.43;100.00;96002.66;1026746;28;20023;-72
2022/07/04 01:10:45;;;;;;;2.40;2.20;;;;;;;18.39;100.00;96007.03;1018528;29;20507;-72
2022/07/04 01:11:16;;;;;;;3.47;2.30;;;;;;;18.36;100.00;96000.44;1022688;28;20435;-72
2022/07/04 01:11:50;;;;;;;2.20;2.00;;;;;;;18.33;100.00;95997.63;1026491;28;20014;-72
2022/07/04 01:12:29;;;;;;;3.92;1.98;;;;;;;18.33;100.00;96010.91;1027155;28;20694;-72
2022/07/04 01:13:00;;;;;;;1.98;1.80;;;;;;;18.36;100.00;96010.28;1026678;28;20091;-72
2022/07/04 01:13:30;;;;;;;2.78;1.95;;;;;;;18.38;100.00;96006.25;1022512;29;20019;-72
2022/07/04 01:14:02;;;;;;;4.15;1.95;;;;;;;18.42;100.00;95997.66;1026785;28;20821;-72
2022/07/04 01:14:36;;;;;;;3.50;1.98;;;;;;;18.45;100.00;95999.72;1026592;28;20717;-72
2022/07/04 01:15:07;;;;;;;4.85;2.00;;;;;;;18.40;100.00;95995.28;1035986;28;20020;-72
2022/07/04 01:15:37;;;;;;;2.55;1.85;;;;;;;18.42;100.00;95995.78;1033827;28;20480;-72
2022/07/04 01:16:08;;;;;;;2.72;1.85;;;;;;;18.41;100.00;95998.75;1030788;28;20006;-72
2022/07/04 01:16:39;;;;;;;2.40;1.80;;;;;;;18.40;100.00;95997.94;1022343;29;20019;-72
2022/07/04 01:17:09;;;;;;;2.78;2.10;;;;;;;18.37;100.00;95990.59;1022924;28;20087;-71
2022/07/04 01:17:40;;;;;;;3.80;1.95;;;;;;;18.36;100.00;95994.34;1026441;28;20034;-72
2022/07/04 01:18:10;;;;;;;2.13;1.77;;;;;;;18.36;100.00;95991.69;1026602;28;20514;-72
2022/07/04 01:18:41;;;;;;;3.08;1.98;;;;;;;18.33;100.00;95987.75;1030473;28;20018;-72
2022/07/04 01:19:11;;;;;;;2.35;1.92;;;;;;;18.37;100.00;95987.94;1030628;28;20101;-71
2022/07/04 01:19:42;;;;;;;5.20;2.08;;;;;;;18.33;100.00;95979.03;1025543;28;20074;-71
2022/07/04 01:20:13;;;;;;;2.42;2.10;;;;;;;18.36;100.00;95994.34;1025713;28;20374;-72
2022/07/04 01:20:43;;;;;;;5.70;2.38;;;;;;;18.35;100.00;95990.91;1026630;28;20015;-72
2022/07/04 01:21:14;;;;;;;5.47;2.05;;;;;;;18.33;100.00;95985.09;1022678;29;20019;-73
2022/07/04 01:21:44;;;;;;;2.63;2.10;;;;;;;18.38;100.00;95994.84;1018452;28;20020;-73
2022/07/04 01:22:15;;;;;;;6.25;2.60;;;;;;;18.33;100.00;95987.00;1026431;28;20478;-72
2022/07/04 01:22:45;;;;;;;2.47;2.28;;;;;;;18.35;100.00;95990.91;1031566;28;20011;-72
2022/07/04 01:23:16;;;;;;;2.45;2.22;;;;;;;18.36;100.00;95991.69;1026344;28;20129;-73
2022/07/04 01:23:46;;;;;;;4.20;2.13;;;;;;;18.31;100.00;95987.31;1025282;28;20023;-73
2022/07/04 01:24:17;;;;;;;3.25;2.00;;;;;;;18.31;100.00;95984.66;1030690;28;20038;-73
2022/07/04 01:24:48;;;;;;;4.22;2.28;;;;;;;18.33;100.00;95997.63;1030595;28;20069;-71
2022/07/04 01:25:19;;;;;;;2.42;2.20;;;;;;;18.27;100.00;95994.28;1028045;28;20015;-72
2022/07/04 01:25:50;;;;;;;3.97;2.50;;;;;;;18.29;100.00;95996.66;1026422;28;20695;-73
2022/07/04 01:26:21;;;;;;;3.38;2.20;;;;;;;18.28;100.00;96001.19;1018600;29;20020;-72
2022/07/04 01:26:51;;;;;;;6.90;2.50;;;;;;;18.25;100.00;95999.16;1026666;28;20038;-72
2022/07/04 01:27:22;;;;;;;2.58;2.20;;;;;;;18.27;100.00;96007.56;1034543;28;20052;-72
2022/07/04 01:27:52;;;;;;;2.83;2.40;;;;;;;18.25;100.00;96004.47;1034652;28;20029;-72
2022/07/04 01:28:23;;;;;;;2.22;2.03;;;;;;;18.24;100.00;96002.09;1026563;28;20023;-73
2022/07/04 01:28:53;;;;;;;4.18;1.90;;;;;;;18.21;100.00;95989.41;1022352;28;20019;-72
2022/07/04 01:29:24;;;;;;;3.83;2.45;;;;;;;18.26;100.00;96005.25;1018488;29;20042;-73
2022/07/04 01:29:54;;;;;;;3.25;2.50;;;;;;;18.22;100.00;96002.41;1022598;29;20813;-72
2022/07/04 01:30:25;;;;;;;2.83;2.40;;;;;;;18.17;100.00;95994.56;1022533;28;20031;-72
2022/07/04 01:30:55;;;;;;;3.58;2.40;;;;;;;18.20;100.00;96001.13;1026744;28;20047;-72
2022/07/04 01:31:26;;;;;;;10.45;3.00;;;;;;;18.18;100.00;95996.16;1030390;28;20073;-72
2022/07/04 01:31:56;;;;;;;3.67;2.47;;;;;;;18.17;100.00;96004.41;1033760;28;20029;-71
2022/07/04 01:32:27;;;;;;;3.35;2.10;;;;;;;18.15;100.00;95999.41;1026536;28;20019;-73
2022/07/04 01:32:57;;;;;;;4.53;2.30;;;;;;;18.12;100.00;95998.13;1026351;28;20041;-72
2022/07/04 01:33:28;;;;;;;7.90;2.25;;;;;;;18.14;100.00;96000.47;1026454;28;20031;-73
2022/07/04 01:33:58;;;;;;;2.50;2.30;;;;;;;18.10;100.00;95991.56;1026505;28;20018;-72
2022/07/04 01:34:29;;;;;;;8.68;2.40;;;;;;;18.11;100.00;96001.09;1022521;29;20051;-73
2022/07/04 01:34:59;;;;;;;3.97;2.33;;;;;;;18.11;100.00;95996.56;1022595;29;20054;-72
2022/07/04 01:35:30;;;;;;;4.45;2.60;;;;;;;18.10;100.00;95995.00;1019614;29;20023;-72
2022/07/04 01:36:00;;;;;;;4.03;2.30;;;;;;;18.10;100.00;95997.66;1018371;29;20034;-72
2022/07/04 01:36:30;;;;;;;5.00;2.40;;;;;;;18.06;100.00;95994.03;1018696;29;20023;-72
2022/07/04 01:37:01;;;;;;;4.90;2.70;;;;;;;18.08;100.00;95999.84;1022291;28;20873;-72
2022/07/04 01:37:32;;;;;;;4.03;2.33;;;;;;;18.09;100.00;96000.63;1022432;29;20061;-73
2022/07/04 01:38:02;;;;;;;3.30;2.30;;;;;;;18.03;100.00;95997.28;1026601;28;20056;-74
2022/07/04 01:38:33;;;;;;;6.88;2.22;;;;;;;18.04;100.00;95993.56;1026567;28;20023;-73
2022/07/04 01:39:03;;;;;;;4.95;2.70;;;;;;;18.04;100.00;96001.53;1026716;28;20019;-72
2022/07/04 01:39:34;;;;;;;3.47;2.40;;;;;;;18.03;100.00;95999.94;1026428;28;20023;-73
2022/07/04 01:40:05;;;;;;;5.82;2.60;;;;;;;18.03;100.00;96004.47;1022622;28;20034;-73
2022/07/04 01:40:35;;;;;;;2.50;1.83;;;;;;;18.00;100.00;96003.22;1026649;28;20077;-73
2022/07/04 01:41:06;;;;;;;4.50;2.10;;;;;;;17.98;100.00;95997.44;1026418;28;20077;-73
2022/07/04 01:41:36;;;;;;;3.33;2.20;;;;;;;18.02;100.00;96002.91;1026239;28;20111;-70
2022/07/04 01:42:07;;;;;;;2.92;2.63;;;;;;;18.02;100.00;96014.31;1030367;28;20022;-72
2022/07/04 01:42:38;;;;;;;2.65;2.20;;;;;;;17.98;100.00;95992.13;1026317;28;20030;-73
2022/07/04 01:43:08;;;;;;;3.95;2.72;;;;;;;18.01;100.00;96002.13;1026888;28;20050;-73
2022/07/04 01:43:39;;;;;;;3.40;2.40;;;;;;;17.98;100.00;95992.13;1026424;28;20019;-73
2022/07/04 01:44:09;;;;;;;7.00;2.67;;;;;;;17.96;100.00;95994.28;1026465;28;20023;-72
2022/07/04 01:44:40;;;;;;;3.00;2.45;;;;;;;17.98;100.00;95997.44;1030706;28;20050;-72
2022/07/04 01:45:11;;;;;;;4.78;2.50;;;;;;;17.99;100.00;95995.56;1034587;28;20652;-72
2022/07/04 01:45:41;;;;;;;4.35;2.78;;;;;;;17.96;100.00;95983.66;1026304;28;20038;-72
2022/07/04 01:46:12;;;;;;;3.38;2.38;;;;;;;18.00;100.00;95989.94;1018617;29;20019;-73
2022/07/04 01:46:42;;;;;;;5.22;2.20;;;;;;;18.00;100.00;95991.81;1022483;29;20027;-73
2022/07/04 01:47:13;;;;;;;3.58;2.22;;;;;;;17.93;100.00;95983.50;1018969;28;20051;-73
2022/07/04 01:47:43;;;;;;;5.95;2.63;;;;;;;17.96;100.00;95988.97;1022195;28;20039;-73
2022/07/04 01:48:13;;;;;;;4.03;2.42;;;;;;;17.97;100.00;95990.53;1026320;28;20023;-73
2022/07/04 01:48:44;;;;;;;6.20;2.55;;;;;;;17.98;100.00;95991.34;1022495;29;20395;-72
2022/07/04 01:49:14;;;;;;;2.60;2.40;;;;;;;17.99;100.00;95991.03;1022649;28;20114;-72
2022/07/04 01:49:45;;;;;;;6.70;2.67;;;;;;;17.99;100.00;95991.03;1023191;28;20034;-72
2022/07/04 01:50:15;;;;;;;2.88;2.33;;;;;;;17.97;100.00;95990.53;1026152;28;20747;-72
2022/07/04 01:50:46;;;;;;;2.50;2.30;;;;;;;17.97;100.00;95995.06;1022295;28;20039;-72
2022/07/04 01:51:16;;;;;;;4.57;2.55;;;;;;;17.98;100.00;95992.13;1026523;28;20138;-73
2022/07/04 01:51:47;;;;;;;3.17;2.60;;;;;;;17.95;100.00;95992.72;1021779;29;20046;-72
2022/07/04 01:52:18;;;;;;;3.58;2.53;;;;;;;17.96;100.00;95999.59;1029230;28;20497;-72
2022/07/04 01:52:48;;;;;;;4.10;2.38;;;;;;;17.98;100.00;95991.34;1034352;28;20026;-72
2022/07/04 01:53:19;;;;;;;3.60;2.30;;;;;;;17.97;100.00;95990.53;1026475;28;20031;-72
2022/07/04 01:53:49;;;;;;;4.57;2.40;;;;;;;17.96;100.00;95991.63;1022569;29;20030;-73
2022/07/04 01:54:20;;;;;;;2.95;2.58;;;;;;;17.95;100.00;95990.06;1020833;29;20642;-72
2022/07/04 01:54:50;;;;;;;2.33;2.13;;;;;;;17.95;100.00;95987.41;1022662;28;20039;-72
2022/07/04 01:55:21;;;;;;;4.40;2.40;;;;;;;17.96;100.00;95986.31;1022713;29;20031;-73
2022/07/04 01:55:51;;;;;;;3.50;2.28;;;;;;;17.98;100.00;95991.34;1027486;28;20035;-72
2022/07/04 01:56:22;;;;;;;5.05;2.35;;;;;;;17.95;100.00;95992.72;1034467;28;20571;-73
2022/07/04 01:56:52;;;;;;;4.57;2.60;;;;;;;17.98;100.00;95992.13;1031042;28;20104;-73
2022/07/04 01:57:23;;;;;;;5.05;2.20;;;;;;;17.93;100.00;95983.50;1034829;28;20026;-73
2022/07/04 01:57:53;;;;;;;7.45;2.63;;;;;;;17.98;100.00;95992.13;1030430;28;20077;-73
2022/07/04 01:58:23;;;;;;;2.95;2.65;;;;;;;17.98;100.00;95988.69;1022514;29;20023;-73
2022/07/04 01:58:54;;;;;;;3.40;2.40;;;;;;;17.97;100.00;95995.84;1018521;29;20020;-72
2022/07/04 02:01:29;;;;;;;2.58;2.38;;;;;;;17.99;100.00;95996.34;1018334;29;20027;-73
2022/07/04 02:01:49;;;;;;;3.85;2.30;;;;;;;17.95;100.00;95998.03;1022510;28;20023;-72
2022/07/04 02:01:55;;;;;;;3.92;2.25;;;;;;;17.97;100.00;95995.06;1015459;28;20913;-73
2022/07/04 02:02:25;;;;;;;3.95;2.10;;;;;;;17.95;100.00;95994.59;1024239;28;20027;-73
2022/07/04 02:02:56;;;;;;;7.28;2.70;;;;;;;17.94;100.00;95985.84;1028512;28;20023;-73
2022/07/04 02:03:26;;;;;;;3.15;2.70;;;;;;;17.98;100.00;95996.66;1018671;29;20023;-73
2022/07/04 02:03:57;;;;;;;3.97;2.72;;;;;;;17.98;100.00;95992.13;1018794;29;20020;-73
2022/07/04 02:04:28;;;;;;;4.57;2.33;;;;;;;17.99;100.00;95999.00;1022324;28;20513;-72
2022/07/04 02:04:58;;;;;;;2.85;2.40;;;;;;;17.97;100.00;95990.53;1023196;28;20066;-74
2022/07/04 02:05:29;;;;;;;6.47;2.65;;;;;;;17.98;100.00;96002.75;1030672;28;20034;-73
2022/07/04 02:05:59;;;;;;;3.25;2.35;;;;;;;18.00;100.00;95997.13;1026466;28;20067;-73
2022/07/04 02:06:36;;;;;;;4.95;2.47;;;;;;;18.03;100.00;95994.63;1030739;28;20106;-74
2022/07/04 02:07:06;;;;;;;3.58;2.15;;;;;;;18.04;100.00;96001.53;1031367;28;20754;-73
2022/07/04 02:07:37;;;;;;;4.65;2.50;;;;;;;18.04;100.00;96001.53;1029350;28;20030;-73
2022/07/04 02:08:08;;;;;;;3.30;2.22;;;;;;;18.03;100.00;95996.50;1030461;28;20018;-73
2022/07/04 02:09:28;;;;;;;3.75;2.33;;;;;;;18.03;100.00;95999.16;1028359;28;20027;-73
2022/07/04 02:09:58;;;;;;;5.50;2.33;;;;;;;18.02;100.00;95998.38;1029858;28;20029;-73
2022/07/04 02:10:29;;;;;;;5.63;2.50;;;;;;;18.02;100.00;95998.38;1028811;28;20019;-73
2022/07/04 02:10:59;;;;;;;4.40;2.30;;;;;;;18.03;100.00;95997.28;1020864;29;20404;-73
2022/07/04 02:13:00;;;;;;;4.28;1.98;;;;;;;18.00;100.00;95989.94;1020421;28;20023;-73
2022/07/04 02:13:09;;;;;;;4.70;2.45;;;;;;;18.09;100.00;95988.13;1030435;28;20516;-73
2022/07/04 02:13:39;;;;;;;2.85;2.30;;;;;;;18.06;100.00;95983.41;1034535;28;20061;-73
2022/07/04 02:14:10;;;;;;;3.25;2.33;;;;;;;18.08;100.00;95983.91;1034541;28;20484;-73
2022/07/04 02:14:41;;;;;;;2.55;2.35;;;;;;;18.05;100.00;95970.44;1037013;28;20037;-73
2022/07/04 02:15:12;;;;;;;2.40;2.20;;;;;;;18.14;100.00;95980.03;1034133;28;20025;-73
2022/07/04 02:15:42;;;;;;;2.33;2.13;;;;;;;18.15;100.00;95980.81;1022411;29;20106;-72
2022/07/04 02:16:13;;;;;;;4.07;2.15;;;;;;;18.15;100.00;95980.81;1018304;29;20023;-72
2022/07/04 02:16:43;;;;;;;2.55;2.00;;;;;;;18.16;100.00;95976.28;1014497;29;20032;-73
2022/07/04 02:17:14;;;;;;;6.18;2.10;;;;;;;18.16;100.00;95981.59;1014720;28;20488;-73
2022/07/04 02:17:44;;;;;;;4.10;1.88;;;;;;;18.16;100.00;95978.94;1026396;28;20029;-73
2022/07/04 02:18:14;;;;;;;2.58;2.03;;;;;;;18.14;100.00;95980.03;1022223;29;20030;-72
2022/07/04 02:18:45;;;;;;;3.17;2.13;;;;;;;18.14;100.00;95979.22;1022578;28;20027;-73
2022/07/04 02:19:15;;;;;;;2.97;2.20;;;;;;;18.11;100.00;95975.31;1026415;28;20482;-73
2022/07/04 02:19:46;;;;;;;2.75;2.20;;;;;;;18.12;100.00;95982.19;1022868;28;20674;-73
2022/07/04 02:20:16;;;;;;;6.10;2.47;;;;;;;18.08;100.00;95978.59;1030502;28;20038;-73
2022/07/04 02:20:47;;;;;;;4.78;2.20;;;;;;;18.09;100.00;95972.19;1030512;28;20109;-73
2022/07/04 02:21:17;;;;;;;6.18;2.55;;;;;;;18.06;100.00;95972.78;1030551;28;20084;-73
2022/07/04 02:21:48;;;;;;;3.10;2.20;;;;;;;18.08;100.00;95973.28;1030350;28;20522;-73
2022/07/04 02:22:18;;;;;;;2.33;2.08;;;;;;;18.12;100.00;95971.56;1026264;28;20166;-73
2022/07/04 02:22:49;;;;;;;3.58;2.13;;;;;;;18.14;100.00;95974.72;1026613;28;20403;-73
2022/07/04 02:23:19;;;;;;;3.40;2.28;;;;;;;18.14;100.00;95979.22;1022586;28;20075;-73
2022/07/04 02:23:49;;;;;;;2.17;2.00;;;;;;;18.11;100.00;95980.63;1022311;28;20102;-73
2022/07/04 02:24:20;;;;;;;3.17;2.33;;;;;;;18.08;100.00;95981.25;1026444;28;20078;-73
2022/07/04 02:24:50;;;;;;;5.53;2.60;;;;;;;18.06;100.00;95972.78;1018598;29;20027;-73
2022/07/04 02:25:21;;;;;;;7.70;3.10;;;;;;;18.04;100.00;95974.97;1022548;28;20138;-73
2022/07/04 02:25:52;;;;;;;6.60;3.70;;;;;;;18.04;100.00;95984.78;1018428;29;20098;-73